createdAt,value
2023-05-14T00:01:26.134Z,58.10
2023-05-14T00:04:12.755Z,58.42
2023-05-14T00:06:59.258Z,59.18
2023-05-14T00:09:46.696Z,59.88
2023-05-14T00:12:33.906Z,60.67
2023-05-14T00:15:20.667Z,60.53
2023-05-14T00:18:07.220Z,60.56
2023-05-14T00:20:54.980Z,60.74
2023-05-14T00:23:41.763Z,61.24
2023-05-14T00:26:28.408Z,61.67
2023-05-14T00:29:15.130Z,61.80
2023-05-14T00:32:01.515Z,62.12
2023-05-14T00:34:48.044Z,66.13
2023-05-14T00:37:34.463Z,62.91
2023-05-14T00:40:25.844Z,58.86
2023-05-14T00:43:12.913Z,54.32
2023-05-14T00:46:00.384Z,55.22
2023-05-14T00:48:46.555Z,56.75
2023-05-14T00:51:33.263Z,57.95
2023-05-14T00:54:20.988Z,58.48
2023-05-14T00:57:07.535Z,58.65
2023-05-14T00:59:53.979Z,59.21
2023-05-14T01:02:40.662Z,59.80
2023-05-14T01:05:36.558Z,60.62
2023-05-14T01:08:46.684Z,61.53
2023-05-14T01:11:59.869Z,62.13
2023-05-14T01:15:09.200Z,72.46
2023-05-14T01:18:01.676Z,71.73
2023-05-14T01:20:52.203Z,65.48
2023-05-14T01:23:38.500Z,55.33
2023-05-14T01:26:24.998Z,52.53
2023-05-14T01:29:26.724Z,53.27
2023-05-14T01:32:13.708Z,54.33
2023-05-14T01:35:01.769Z,55.97
2023-05-14T01:37:50.353Z,56.53
2023-05-14T01:40:37.685Z,57.97
2023-05-14T01:43:24.512Z,58.73
2023-05-14T01:46:11.449Z,59.94
2023-05-14T01:48:58.150Z,60.66
2023-05-14T01:51:44.557Z,61.36
2023-05-14T01:54:31.179Z,61.59
2023-05-14T01:57:18.139Z,69.16
2023-05-14T02:00:05.019Z,72.12
2023-05-14T02:03:00.686Z,63.07
2023-05-14T02:05:47.396Z,55.13
2023-05-14T02:08:33.929Z,52.38
2023-05-14T02:11:20.499Z,53.13
2023-05-14T02:14:07.067Z,53.98
2023-05-14T02:16:53.439Z,55.56
2023-05-14T02:19:40.153Z,58.06
2023-05-14T02:22:26.740Z,58.57
2023-05-14T02:25:12.956Z,59.05
2023-05-14T02:27:59.568Z,59.91
2023-05-14T02:30:46.132Z,60.85
2023-05-14T02:33:32.950Z,61.42
2023-05-14T02:36:19.603Z,70.19
2023-05-14T02:39:05.966Z,71.35
2023-05-14T02:41:52.314Z,61.32
2023-05-14T02:44:38.831Z,54.36
2023-05-14T02:47:25.424Z,52.98
2023-05-14T02:50:12.022Z,55.45
2023-05-14T02:52:58.649Z,56.86
2023-05-14T02:55:45.444Z,58.31
2023-05-14T02:58:31.823Z,58.71
2023-05-14T03:01:18.975Z,59.65
2023-05-14T03:04:05.931Z,60.76
2023-05-14T03:06:52.144Z,62.45
2023-05-14T03:09:38.552Z,65.01
2023-05-14T03:12:25.084Z,65.25
2023-05-14T03:15:11.757Z,62.47
2023-05-14T03:17:58.071Z,54.47
2023-05-14T03:20:44.457Z,52.10
2023-05-14T03:23:32.101Z,53.54
2023-05-14T03:26:18.804Z,54.72
2023-05-14T03:29:05.272Z,55.11
2023-05-14T03:31:51.991Z,56.27
2023-05-14T03:34:38.449Z,57.89
2023-05-14T03:37:25.197Z,59.39
2023-05-14T03:40:11.815Z,60.19
2023-05-14T03:42:58.379Z,67.36
2023-05-14T03:45:44.981Z,69.48
2023-05-14T03:48:31.533Z,60.23
2023-05-14T03:51:18.218Z,52.43
2023-05-14T03:54:04.931Z,52.44
2023-05-14T03:56:52.013Z,53.37
2023-05-14T03:59:38.388Z,54.61
2023-05-14T04:02:25.213Z,55.70
2023-05-14T04:05:11.765Z,56.60
2023-05-14T04:07:58.269Z,57.33
2023-05-14T04:10:45.049Z,58.48
2023-05-14T04:13:31.686Z,58.95
2023-05-14T04:16:18.209Z,59.92
2023-05-14T04:19:05.861Z,60.29
2023-05-14T04:21:52.650Z,69.42
2023-05-14T04:24:40.052Z,66.76
2023-05-14T04:27:27.296Z,55.52
2023-05-14T04:30:13.796Z,52.77
2023-05-14T04:32:59.998Z,53.97
2023-05-14T04:35:46.648Z,54.86
2023-05-14T04:38:33.458Z,56.19
2023-05-14T04:41:20.136Z,56.51
2023-05-14T04:44:07.180Z,56.86
2023-05-14T04:46:53.536Z,57.65
2023-05-14T04:49:39.984Z,57.92
2023-05-14T04:52:26.785Z,59.09
2023-05-14T04:55:13.322Z,58.78
2023-05-14T04:57:59.986Z,59.18
2023-05-14T05:00:46.606Z,59.00
2023-05-14T05:03:32.929Z,59.53
2023-05-14T05:06:19.528Z,59.73
2023-05-14T05:09:05.973Z,60.00
2023-05-14T05:11:52.521Z,59.98
2023-05-14T05:14:39.217Z,59.95
2023-05-14T05:17:25.718Z,59.98
2023-05-14T05:20:13.371Z,59.86
2023-05-14T05:22:59.982Z,59.65
2023-05-14T05:25:46.543Z,59.93
2023-05-14T05:28:33.061Z,59.90
2023-05-14T05:31:20.070Z,59.07
2023-05-14T05:34:06.654Z,59.06
2023-05-14T05:36:53.234Z,58.52
2023-05-14T05:39:40.169Z,57.92
2023-05-14T05:42:26.727Z,57.94
2023-05-14T05:45:13.398Z,56.17
2023-05-14T05:48:00.017Z,55.92
2023-05-14T05:50:50.286Z,55.79
2023-05-14T05:53:36.484Z,55.38
2023-05-14T05:56:22.872Z,54.47
2023-05-14T05:59:09.253Z,55.09
2023-05-14T06:01:55.608Z,54.30
2023-05-14T06:04:42.084Z,53.48
2023-05-14T06:07:28.540Z,53.09
2023-05-14T06:10:15.351Z,53.07
2023-05-14T06:13:02.073Z,52.98
2023-05-14T06:15:48.267Z,51.77
2023-05-14T06:18:34.813Z,52.08
2023-05-14T06:21:21.841Z,51.08
2023-05-14T06:24:08.360Z,50.54
2023-05-14T06:26:54.882Z,50.20
2023-05-14T06:29:41.869Z,50.07
2023-05-14T06:32:28.186Z,49.53
2023-05-14T06:35:14.638Z,48.00
2023-05-14T06:38:01.382Z,46.10
2023-05-14T06:40:47.866Z,46.64
2023-05-14T06:43:34.309Z,45.87
2023-05-14T06:46:21.241Z,45.38
2023-05-14T06:49:07.667Z,44.84
2023-05-14T06:51:54.239Z,45.38
2023-05-14T06:54:40.780Z,44.11
2023-05-14T06:57:27.579Z,44.64
2023-05-14T07:00:15.610Z,43.46
2023-05-14T07:03:02.385Z,42.99
2023-05-14T07:05:48.913Z,43.62
2023-05-14T07:08:36.114Z,43.39
2023-05-14T07:11:23.182Z,43.37
2023-05-14T07:14:09.784Z,43.43
2023-05-14T07:16:57.365Z,42.33
2023-05-14T07:19:43.888Z,42.63
2023-05-14T07:22:30.438Z,42.41
2023-05-14T07:25:16.984Z,41.65
2023-05-14T07:28:03.421Z,41.45
2023-05-14T07:30:49.638Z,41.41
2023-05-14T07:33:36.618Z,40.17
2023-05-14T07:36:23.128Z,40.93
2023-05-14T07:39:09.269Z,40.06
2023-05-14T07:41:55.880Z,39.89
2023-05-14T07:44:42.731Z,38.96
2023-05-14T07:47:29.390Z,38.97
2023-05-14T07:50:16.715Z,39.11
2023-05-14T07:53:03.461Z,38.89
2023-05-14T07:55:50.528Z,38.48
2023-05-14T07:58:36.824Z,38.17
2023-05-14T08:01:23.232Z,38.09
2023-05-14T08:04:11.745Z,38.52
2023-05-14T08:06:58.794Z,38.22
2023-05-14T08:09:45.089Z,37.97
2023-05-14T08:12:31.843Z,37.99
2023-05-14T08:15:18.883Z,37.98
2023-05-14T08:18:05.686Z,37.84
2023-05-14T08:20:52.045Z,37.44
2023-05-14T08:23:38.688Z,36.92
2023-05-14T08:26:25.871Z,36.73
2023-05-14T08:29:14.687Z,36.94
2023-05-14T08:32:08.735Z,36.95
2023-05-14T08:35:06.861Z,37.00
2023-05-14T08:37:53.457Z,35.74
2023-05-14T08:40:40.274Z,35.77
2023-05-14T08:43:30.795Z,35.08
2023-05-14T08:46:18.025Z,35.10
2023-05-14T08:49:15.571Z,35.06
2023-05-14T08:52:02.676Z,34.89
2023-05-14T08:54:51.206Z,34.61
2023-05-14T08:57:37.997Z,34.46
2023-05-14T09:00:25.081Z,34.38
2023-05-14T09:03:12.651Z,34.30
2023-05-14T09:06:00.190Z,34.34
2023-05-14T09:08:47.261Z,33.65
2023-05-14T09:11:33.858Z,33.71
2023-05-14T09:14:20.992Z,33.09
2023-05-14T09:17:08.122Z,32.41
2023-05-14T09:19:54.671Z,32.33
2023-05-14T09:22:42.112Z,31.80
2023-05-14T09:25:32.463Z,31.35
2023-05-14T09:28:19.186Z,31.21
2023-05-14T09:31:05.628Z,31.25
2023-05-14T09:33:52.605Z,31.44
2023-05-14T09:36:39.168Z,31.51
2023-05-14T09:39:26.650Z,31.63
2023-05-14T09:42:13.189Z,31.78
2023-05-14T09:44:59.998Z,31.97
2023-05-14T09:47:46.568Z,32.18
2023-05-14T09:50:42.068Z,32.20
2023-05-14T09:53:29.836Z,31.51
2023-05-14T09:56:16.587Z,31.44
2023-05-14T09:59:04.006Z,31.30
2023-05-14T10:01:52.336Z,31.12
2023-05-14T10:04:39.212Z,30.43
2023-05-14T10:07:31.758Z,30.62
2023-05-14T10:10:21.946Z,31.00
2023-05-14T10:13:14.771Z,30.81
2023-05-14T10:16:11.264Z,29.89
2023-05-14T10:19:06.053Z,29.75
2023-05-14T10:21:57.147Z,29.97
2023-05-14T10:24:44.006Z,29.87
2023-05-14T10:27:30.764Z,29.77
2023-05-14T10:30:23.121Z,29.62
2023-05-14T10:33:13.293Z,29.05
2023-05-14T10:36:07.723Z,28.37
2023-05-14T10:38:57.502Z,27.46
2023-05-14T10:41:44.400Z,27.55
2023-05-14T10:44:32.320Z,27.31
2023-05-14T10:47:19.265Z,27.12
2023-05-14T10:50:07.918Z,27.47
2023-05-14T10:52:55.338Z,27.51
2023-05-14T10:55:43.140Z,27.18
2023-05-14T10:58:33.667Z,26.90
2023-05-14T11:01:24.128Z,27.06
2023-05-14T11:04:19.401Z,26.90
2023-05-14T11:07:06.253Z,26.94
2023-05-14T11:09:53.959Z,26.77
2023-05-14T11:12:42.632Z,26.83
2023-05-14T11:15:29.207Z,26.88
2023-05-14T11:18:27.934Z,26.64
2023-05-14T11:21:14.353Z,26.55
2023-05-14T11:24:01.629Z,26.57
2023-05-14T11:26:48.305Z,26.48
2023-05-14T11:29:36.849Z,26.00
2023-05-14T11:32:23.644Z,26.30
2023-05-14T11:35:10.787Z,26.09
2023-05-14T11:37:57.293Z,26.04
2023-05-14T11:40:53.117Z,25.63
2023-05-14T11:43:39.530Z,25.93
2023-05-14T11:46:26.326Z,26.17
2023-05-14T11:49:13.044Z,26.47
2023-05-14T11:52:00.886Z,26.75
2023-05-14T11:54:47.769Z,27.14
2023-05-14T11:57:35.385Z,27.15
2023-05-14T12:00:23.296Z,27.29
2023-05-14T12:03:10.214Z,27.46
2023-05-14T12:06:01.128Z,27.63
2023-05-14T12:08:49.244Z,27.59
2023-05-14T12:11:36.912Z,27.46
2023-05-14T12:14:24.509Z,27.28
2023-05-14T12:17:23.703Z,26.97
2023-05-14T12:20:12.491Z,26.94
2023-05-14T12:22:59.274Z,26.20
2023-05-14T12:25:52.785Z,25.34
2023-05-14T12:28:43.523Z,24.98
2023-05-14T12:31:31.694Z,24.65
2023-05-14T12:34:18.223Z,23.70
2023-05-14T12:37:06.158Z,22.87
2023-05-14T12:39:52.663Z,22.69
2023-05-14T12:42:39.293Z,22.04
2023-05-14T12:45:26.048Z,22.35
2023-05-14T12:48:13.217Z,22.75
2023-05-14T12:50:59.730Z,22.31
2023-05-14T12:53:46.304Z,22.72
2023-05-14T12:56:32.643Z,23.04
2023-05-14T12:59:19.074Z,23.22
2023-05-14T13:02:05.837Z,23.43
2023-05-14T13:04:52.467Z,23.65
2023-05-14T13:07:39.280Z,23.84
2023-05-14T13:10:25.733Z,24.07
2023-05-14T13:13:12.405Z,24.09
2023-05-14T13:15:58.652Z,24.22
2023-05-14T13:18:45.294Z,24.14
2023-05-14T13:21:32.079Z,24.37
2023-05-14T13:24:18.555Z,23.83
2023-05-14T13:27:05.694Z,23.25
2023-05-14T13:29:52.115Z,23.16
2023-05-14T13:32:39.646Z,23.13
2023-05-14T13:35:28.129Z,23.02
2023-05-14T13:38:14.707Z,23.54
2023-05-14T13:41:04.396Z,23.70
2023-05-14T13:43:51.180Z,23.61
2023-05-14T13:46:37.762Z,23.86
2023-05-14T13:49:24.036Z,23.89
2023-05-14T13:52:10.538Z,23.90
2023-05-14T13:54:57.260Z,23.99
2023-05-14T13:57:44.382Z,23.95
2023-05-14T14:00:30.925Z,24.21
2023-05-14T14:03:17.514Z,24.33
2023-05-14T14:06:03.864Z,24.55
2023-05-14T14:08:50.353Z,24.81
2023-05-14T14:11:36.953Z,24.94
2023-05-14T14:14:23.582Z,25.11
2023-05-14T14:17:09.801Z,25.24
2023-05-14T14:19:56.099Z,25.37
2023-05-14T14:22:44.851Z,25.44
2023-05-14T14:25:31.001Z,25.39
2023-05-14T14:28:17.564Z,25.51
2023-05-14T14:31:04.031Z,25.55
2023-05-14T14:33:50.573Z,25.40
2023-05-14T14:36:36.781Z,25.27
2023-05-14T14:39:25.512Z,25.30
2023-05-14T14:42:12.149Z,25.42
2023-05-14T14:44:58.949Z,25.42
2023-05-14T14:47:46.789Z,25.52
2023-05-14T14:50:33.669Z,25.47
2023-05-14T14:53:21.671Z,25.51
2023-05-14T14:56:08.017Z,25.47
2023-05-14T14:58:54.292Z,25.65
2023-05-14T15:01:40.972Z,25.67
2023-05-14T15:04:28.521Z,25.76
2023-05-14T15:07:17.408Z,25.78
2023-05-14T15:10:04.023Z,25.99
2023-05-14T15:12:50.613Z,25.63
2023-05-14T15:15:37.657Z,25.41
2023-05-14T15:18:23.923Z,25.29
2023-05-14T15:21:10.709Z,25.53
2023-05-14T15:23:56.850Z,25.66
2023-05-14T15:26:43.416Z,25.87
2023-05-14T15:29:30.295Z,26.04
2023-05-14T15:32:17.127Z,26.13
2023-05-14T15:35:04.049Z,26.36
2023-05-14T15:37:50.878Z,26.48
2023-05-14T15:40:37.542Z,26.60
2023-05-14T15:43:23.986Z,26.64
2023-05-14T15:46:11.428Z,26.58
2023-05-14T15:48:58.446Z,26.43
2023-05-14T15:51:45.070Z,26.43
2023-05-14T15:54:31.744Z,26.48
2023-05-14T15:57:19.988Z,26.57
2023-05-14T16:00:11.147Z,26.53
2023-05-14T16:02:57.578Z,26.84
2023-05-14T16:05:44.882Z,26.91
2023-05-14T16:08:31.198Z,26.98
2023-05-14T16:11:18.333Z,26.99
2023-05-14T16:14:04.752Z,26.72
2023-05-14T16:16:51.553Z,26.68
2023-05-14T16:19:39.734Z,26.75
2023-05-14T16:22:25.836Z,26.84
2023-05-14T16:25:12.263Z,26.91
2023-05-14T16:27:59.134Z,27.14
2023-05-14T16:30:45.656Z,27.15
2023-05-14T16:33:32.360Z,27.34
2023-05-14T16:36:19.050Z,27.45
2023-05-14T16:39:08.186Z,27.64
2023-05-14T16:41:55.094Z,27.78
2023-05-14T16:44:41.372Z,28.03
2023-05-14T16:47:27.826Z,28.26
2023-05-14T16:50:14.422Z,28.44
2023-05-14T16:53:00.520Z,28.57
2023-05-14T16:55:47.106Z,28.66
2023-05-14T16:58:33.444Z,28.81
2023-05-14T17:01:20.039Z,28.96
2023-05-14T17:04:06.286Z,29.06
2023-05-14T17:06:52.700Z,29.34
2023-05-14T17:09:39.588Z,29.35
2023-05-14T17:12:27.056Z,29.64
2023-05-14T17:15:12.673Z,29.76
2023-05-14T17:17:59.059Z,29.90
2023-05-14T17:20:45.623Z,29.94
2023-05-14T17:23:32.141Z,30.08
2023-05-14T17:26:18.715Z,30.46
2023-05-14T17:29:05.237Z,30.59
2023-05-14T17:31:52.155Z,30.51
2023-05-14T17:34:38.663Z,30.58
2023-05-14T17:37:25.782Z,30.77
2023-05-14T17:40:12.500Z,31.18
2023-05-14T17:42:58.910Z,31.38
2023-05-14T17:45:53.968Z,31.57
2023-05-14T17:48:41.313Z,31.85
2023-05-14T17:51:27.816Z,32.06
2023-05-14T17:54:14.331Z,32.03
2023-05-14T17:57:00.691Z,32.40
2023-05-14T17:59:47.039Z,33.06
2023-05-14T18:02:33.841Z,32.88
2023-05-14T18:05:20.796Z,33.70
2023-05-14T18:08:09.180Z,33.44
2023-05-14T18:10:55.583Z,33.83
2023-05-14T18:13:41.964Z,34.27
2023-05-14T18:16:28.823Z,34.32
2023-05-14T18:19:15.159Z,34.65
2023-05-14T18:22:01.974Z,35.08
2023-05-14T18:24:48.738Z,34.90
2023-05-14T18:27:37.479Z,35.12
2023-05-14T18:30:24.263Z,35.03
2023-05-14T18:33:10.646Z,35.24
2023-05-14T18:35:57.597Z,35.81
2023-05-14T18:38:43.826Z,36.20
2023-05-14T18:41:30.180Z,36.77
2023-05-14T18:44:16.377Z,36.42
2023-05-14T18:47:03.002Z,36.71
2023-05-14T18:49:51.034Z,36.85
2023-05-14T18:52:38.216Z,37.51
2023-05-14T18:55:25.042Z,38.42
2023-05-14T18:58:12.144Z,38.96
2023-05-14T19:00:59.186Z,39.97
2023-05-14T19:03:45.856Z,39.17
2023-05-14T19:06:32.915Z,38.78
2023-05-14T19:09:21.243Z,39.80
2023-05-14T19:12:08.310Z,39.84
2023-05-14T19:14:54.692Z,40.55
2023-05-14T19:17:42.028Z,41.20
2023-05-14T19:20:28.806Z,40.72
2023-05-14T19:23:15.395Z,41.09
2023-05-14T19:26:02.494Z,40.56
2023-05-14T19:28:49.130Z,40.57
2023-05-14T19:31:35.688Z,41.17
2023-05-14T19:34:22.301Z,42.42
2023-05-14T19:37:08.547Z,43.63
2023-05-14T19:39:54.829Z,43.36
2023-05-14T19:42:41.489Z,42.75
2023-05-14T19:45:28.264Z,42.97
2023-05-14T19:48:15.965Z,43.28
2023-05-14T19:51:03.476Z,43.37
2023-05-14T19:53:49.824Z,45.70
2023-05-14T19:56:36.601Z,44.75
2023-05-14T19:59:23.825Z,44.80
2023-05-14T20:02:12.844Z,44.31
2023-05-14T20:04:59.566Z,44.48
2023-05-14T20:07:46.999Z,44.76
2023-05-14T20:10:33.872Z,44.60
2023-05-14T20:13:21.823Z,44.70
2023-05-14T20:16:09.870Z,45.13
2023-05-14T20:18:56.354Z,45.47
2023-05-14T20:21:43.184Z,45.74
2023-05-14T20:24:29.605Z,46.09
2023-05-14T20:27:18.888Z,46.34
2023-05-14T20:30:09.197Z,46.54
2023-05-14T20:32:55.848Z,47.55
2023-05-14T20:35:44.013Z,47.65
2023-05-14T20:38:32.855Z,47.54
2023-05-14T20:41:19.344Z,48.04
2023-05-14T20:44:06.180Z,47.65
2023-05-14T20:46:52.931Z,47.42
2023-05-14T20:49:39.621Z,47.62
2023-05-14T20:52:26.570Z,48.28
2023-05-14T20:55:13.403Z,48.49
2023-05-14T20:58:00.034Z,49.65
2023-05-14T21:00:46.539Z,48.82
2023-05-14T21:03:32.915Z,48.81
2023-05-14T21:06:19.719Z,49.35
2023-05-14T21:09:06.303Z,51.06
2023-05-14T21:11:53.677Z,50.62
2023-05-14T21:14:40.121Z,49.74
2023-05-14T21:17:26.377Z,49.83
2023-05-14T21:20:15.557Z,49.65
2023-05-14T21:23:02.138Z,49.74
2023-05-14T21:25:48.667Z,50.03
2023-05-14T21:28:35.051Z,49.99
2023-05-14T21:31:21.678Z,50.64
2023-05-14T21:34:08.385Z,51.30
2023-05-14T21:36:54.752Z,51.45
2023-05-14T21:39:41.680Z,51.56
2023-05-14T21:42:28.118Z,51.21
2023-05-14T21:45:14.866Z,52.62
2023-05-14T21:48:01.141Z,51.65
2023-05-14T21:50:48.023Z,53.00
2023-05-14T21:53:34.920Z,52.55
2023-05-14T21:56:22.676Z,52.25
2023-05-14T21:59:08.955Z,52.29
2023-05-14T22:02:06.813Z,52.71
2023-05-14T22:04:54.370Z,52.59
2023-05-14T22:07:40.894Z,52.71
2023-05-14T22:10:27.693Z,53.09
2023-05-14T22:13:14.469Z,53.44
2023-05-14T22:16:09.311Z,53.85
2023-05-14T22:18:58.921Z,54.05
2023-05-14T22:21:45.773Z,54.46
2023-05-14T22:24:32.247Z,54.45
2023-05-14T22:27:19.075Z,54.60
2023-05-14T22:30:06.006Z,54.65
2023-05-14T22:32:52.618Z,54.74
2023-05-14T22:35:39.327Z,54.93
2023-05-14T22:38:25.971Z,54.82
2023-05-14T22:41:12.578Z,54.86
2023-05-14T22:43:59.059Z,55.01
2023-05-14T22:46:45.717Z,55.14
2023-05-14T22:49:32.326Z,55.44
2023-05-14T22:52:21.574Z,55.56
2023-05-14T22:55:08.500Z,55.74
2023-05-14T22:57:54.854Z,55.99
2023-05-14T23:00:41.203Z,55.97
2023-05-14T23:03:27.972Z,56.23
2023-05-14T23:06:14.810Z,56.29
2023-05-14T23:09:01.051Z,56.35
2023-05-14T23:11:47.705Z,56.49
2023-05-14T23:14:34.325Z,56.69
2023-05-14T23:17:20.744Z,56.94
2023-05-14T23:20:10.511Z,57.16
2023-05-14T23:22:57.010Z,57.72
2023-05-14T23:25:43.626Z,57.37
2023-05-14T23:28:30.868Z,57.22
2023-05-14T23:31:17.456Z,57.36
2023-05-14T23:34:04.073Z,57.57
2023-05-14T23:36:50.784Z,58.02
2023-05-14T23:39:37.735Z,58.42
2023-05-14T23:42:24.799Z,58.99
2023-05-14T23:45:13.005Z,58.58
2023-05-14T23:48:01.398Z,58.47
2023-05-14T23:50:47.711Z,58.60
2023-05-14T23:53:33.948Z,58.82
2023-05-14T23:56:20.555Z,59.17
2023-05-14T23:59:07.613Z,59.17
